Time;durP1;ratioP1;P1;durP2;ratioP2;P2;SDS_P1;SDS_P2;PMS_P1;PMS_P2;Temp;Humidity;BMP_temperature;BMP_pressure;BME280_temperature;BME280_humidity;BME280_pressure;Samples;Min_cycle;Max_cycle;Signal;HPM_P1;HPM_P2
2022/07/17 00:01:05;;;;;;;;;4.75;4.00;;;;;26.07;30.86;101950.81;4919900;28;45540;-59
2022/07/17 00:03:31;;;;;;;;;5.50;4.00;;;;;26.06;31.38;101953.56;4919415;28;46189;-59
2022/07/17 00:05:56;;;;;;;;;3.50;3.25;;;;;26.04;31.19;101945.69;4919774;28;45426;-46
2022/07/17 00:08:22;;;;;;;;;7.00;5.00;;;;;26.04;30.83;101953.66;4919682;28;45438;-50
2022/07/17 00:10:47;;;;;;;;;4.25;4.25;;;;;26.01;31.28;101958.31;4920198;28;45451;-49
2022/07/17 00:13:12;;;;;;;;;4.25;4.25;;;;;25.97;31.62;101951.47;4934074;28;45448;-49
2022/07/17 00:15:38;;;;;;;;;4.75;4.75;;;;;25.97;31.29;101949.69;4934509;28;45270;-61
2022/07/17 00:18:06;;;;;;;;;4.50;4.00;;;;;25.97;31.11;101943.50;4919911;28;45279;-67
2022/07/17 00:20:31;;;;;;;;;4.50;4.25;;;;;25.97;31.45;101949.69;4919215;28;45509;-63
2022/07/17 00:22:57;;;;;;;;;4.25;4.00;;;;;25.98;30.96;101939.88;4918997;28;46375;-54
2022/07/17 00:25:24;;;;;;;;;4.75;3.50;;;;;25.99;31.63;101936.28;4919360;28;45735;-54
2022/07/17 00:27:49;;;;;;;;;4.25;4.25;;;;;25.99;30.90;101952.22;4919138;28;45407;-61
2022/07/17 00:30:14;;;;;;;;;4.00;4.00;;;;;25.97;30.98;101948.81;4919324;28;45467;-58
2022/07/17 00:32:41;;;;;;;;;4.25;4.00;;;;;25.96;31.02;101957.75;4918662;28;45324;-59
2022/07/17 00:35:07;;;;;;;;;3.75;3.75;;;;;25.97;31.50;101954.13;4918873;28;45331;-62
2022/07/17 00:37:39;;;;;;;;;4.00;4.00;;;;;25.93;31.03;101959.63;4919449;28;45355;-51
2022/07/17 00:40:05;;;;;;;;;3.50;3.50;;;;;25.94;31.46;101949.84;4918942;28;45293;-50
2022/07/17 00:42:31;;;;;;;;;4.00;4.00;;;;;25.92;31.08;101947.31;4918568;28;45490;-59
2022/07/17 00:44:56;;;;;;;;;6.00;4.25;;;;;25.92;31.09;101936.69;4918851;28;52604;-65
2022/07/17 00:47:22;;;;;;;;;4.75;4.00;;;;;25.90;31.80;101938.56;4919332;28;45322;-63
2022/07/17 00:49:47;;;;;;;;;4.25;3.25;;;;;25.89;31.16;101942.16;4922194;28;45675;-57
2022/07/17 00:52:14;;;;;;;;;3.50;3.50;;;;;25.90;31.12;101945.69;4927008;28;45345;-48
2022/07/17 00:54:42;;;;;;;;;3.75;3.25;;;;;25.89;31.24;101950.13;4921622;28;45189;-64
2022/07/17 00:57:10;;;;;;;;;2.50;2.50;;;;;25.88;31.28;101951.09;4918963;28;45248;-56
2022/07/17 00:59:37;;;;;;;;;3.75;3.75;;;;;25.84;31.30;101944.28;4917549;28;45559;-65
2022/07/17 01:02:07;;;;;;;;;3.00;3.00;;;;;25.85;31.36;101948.59;4918543;28;45459;-62
2022/07/17 01:04:34;;;;;;;;;4.25;4.00;;;;;25.83;31.26;101947.00;4918319;28;45237;-66
2022/07/17 01:07:00;;;;;;;;;3.00;3.00;;;;;25.84;31.31;101960.22;4918746;28;45471;-66
2022/07/17 01:09:27;;;;;;;;;3.50;2.25;;;;;25.83;31.52;101958.50;4919020;28;45300;-63
2022/07/17 01:11:53;;;;;;;;;4.00;4.00;;;;;25.82;31.78;101953.25;4918657;28;45682;-64
2022/07/17 01:14:19;;;;;;;;;4.00;4.00;;;;;25.81;31.56;101947.09;4918501;28;45750;-67
2022/07/17 01:16:44;;;;;;;;;4.25;4.25;;;;;25.81;31.10;101943.56;4918190;28;45386;-65
2022/07/17 01:19:10;;;;;;;;;4.00;4.00;;;;;25.81;31.23;101943.56;4921546;28;45193;-68
2022/07/17 01:21:47;;;;;;;;;4.50;4.50;;;;;25.80;31.64;101944.56;4919551;28;46771;-63
2022/07/17 01:24:13;;;;;;;;;4.00;4.00;;;;;25.80;31.83;101945.41;4921872;28;45253;-63
2022/07/17 01:26:43;;;;;;;;;5.00;5.00;;;;;25.79;31.45;101949.00;4921960;28;45300;-65
2022/07/17 01:29:11;;;;;;;;;4.00;4.00;;;;;25.77;31.29;101942.91;4936671;28;45327;-55
2022/07/17 01:31:36;;;;;;;;;4.25;4.25;;;;;25.74;31.71;101943.97;4941336;28;45624;-57
2022/07/17 01:34:04;;;;;;;;;4.00;4.00;;;;;25.74;31.25;101951.94;4941712;28;45403;-65
2022/07/17 01:36:29;;;;;;;;;4.50;4.50;;;;;25.73;31.56;101947.56;4919510;28;45399;-65
2022/07/17 01:38:56;;;;;;;;;3.75;3.00;;;;;25.71;31.82;101949.44;4920035;28;45456;-66
2022/07/17 01:41:22;;;;;;;;;4.00;4.00;;;;;25.70;31.76;101953.03;4918965;28;46886;-64
2022/07/17 01:43:47;;;;;;;;;3.25;3.00;;;;;25.69;31.74;101939.88;4920338;28;45343;-62
2022/07/17 01:46:12;;;;;;;;;4.75;3.25;;;;;25.69;31.85;101942.53;4919207;28;45481;-67
2022/07/17 01:48:38;;;;;;;;;4.00;4.00;;;;;25.68;31.86;101932.84;4923671;28;45746;-65
2022/07/17 01:51:03;;;;;;;;;4.25;4.25;;;;;25.66;31.61;101934.75;4924681;28;53708;-68
2022/07/17 01:53:28;;;;;;;;;3.25;3.25;;;;;25.64;31.28;101940.16;4926858;28;45414;-60
2022/07/17 01:55:54;;;;;;;;;3.25;3.25;;;;;25.63;32.01;101935.78;4926562;28;45382;-67
2022/07/17 01:58:19;;;;;;;;;4.00;4.00;;;;;25.61;31.77;101927.06;4936452;28;45300;-67
2022/07/17 02:00:44;;;;;;;;;4.50;4.00;;;;;25.61;31.87;101927.94;4924336;28;45219;-62
2022/07/17 02:03:10;;;;;;;;;3.25;2.25;;;;;25.62;31.50;101926.13;4922236;28;45507;-64
2022/07/17 02:05:35;;;;;;;;;4.00;4.00;;;;;25.62;31.76;101926.97;4921837;28;45404;-59
2022/07/17 02:08:01;;;;;;;;;4.75;3.00;;;;;25.60;31.73;101926.22;4924614;28;45523;-62
2022/07/17 02:10:27;;;;;;;;;3.00;3.00;;;;;25.61;31.91;101921.75;4938018;28;46191;-67
2022/07/17 02:12:52;;;;;;;;;3.00;3.00;;;;;25.60;31.40;101928.88;4940992;28;45348;-67
2022/07/17 02:15:17;;;;;;;;;5.00;4.00;;;;;25.59;31.97;101927.16;4943641;28;44730;-62
2022/07/17 02:17:43;;;;;;;;;4.25;4.25;;;;;25.59;31.53;101935.13;4924413;28;45252;-64
2022/07/17 02:20:10;;;;;;;;;8.00;5.75;;;;;25.55;31.84;101927.44;4921226;28;47514;-63
2022/07/17 02:22:36;;;;;;;;;4.75;4.75;;;;;25.54;31.43;101926.56;4920352;28;45971;-63
2022/07/17 02:25:03;;;;;;;;;7.25;7.00;;;;;25.56;31.36;101927.34;4921212;28;45807;-61
2022/07/17 02:27:31;;;;;;;;;7.50;7.50;;;;;25.57;31.31;101925.56;4921186;28;45557;-66
2022/07/17 02:29:56;;;;;;;;;13.25;9.00;;;;;25.56;31.81;101930.00;4921118;28;45248;-52
2022/07/17 02:32:21;;;;;;;;;7.25;7.25;;;;;25.54;31.94;101925.72;4921172;28;45360;-63
2022/07/17 02:34:47;;;;;;;;;7.50;7.50;;;;;25.48;31.95;101926.94;4920532;28;45427;-65
2022/07/17 02:37:12;;;;;;;;;7.75;6.00;;;;;25.46;31.94;101923.53;4921133;28;45595;-64
2022/07/17 02:39:51;;;;;;;;;7.50;6.50;;;;;25.45;31.96;101925.34;4920286;28;46934;-57
2022/07/17 02:42:21;;;;;;;;;7.00;5.50;;;;;25.41;31.91;101920.31;4920736;28;45860;-62
2022/07/17 02:44:47;;;;;;;;;5.25;5.00;;;;;25.41;31.95;101928.25;4920672;28;45231;-62
2022/07/17 02:47:13;;;;;;;;;6.00;5.25;;;;;25.39;31.78;101922.16;4921066;28;45372;-62
2022/07/17 02:49:38;;;;;;;;;4.00;4.00;;;;;25.37;32.01;101919.56;4920424;28;45347;-59
2022/07/17 02:52:04;;;;;;;;;5.75;4.75;;;;;25.39;31.41;101917.69;4920746;28;45463;-68
2022/07/17 02:54:29;;;;;;;;;3.50;3.50;;;;;25.38;31.65;101917.78;4919203;28;45616;-68
2022/07/17 02:56:54;;;;;;;;;4.25;4.25;;;;;25.36;31.41;101920.50;4920914;28;45410;-63
2022/07/17 02:59:20;;;;;;;;;4.25;3.25;;;;;25.32;31.51;101917.19;4920257;28;48741;-67
2022/07/17 03:01:45;;;;;;;;;4.00;4.00;;;;;25.29;32.13;101917.41;4920166;28;45407;-62
2022/07/17 03:04:10;;;;;;;;;4.00;4.00;;;;;25.27;31.57;101913.09;4928398;28;45381;-55
2022/07/17 03:06:36;;;;;;;;;3.25;2.75;;;;;25.26;32.25;101909.59;4929241;28;44789;-58
2022/07/17 03:09:01;;;;;;;;;3.00;2.75;;;;;25.23;32.10;101915.09;4920688;28;46057;-58
2022/07/17 03:11:26;;;;;;;;;4.00;3.00;;;;;25.22;31.66;101910.72;4920512;28;45827;-43
2022/07/17 03:13:52;;;;;;;;;4.00;4.00;;;;;25.23;31.78;101914.25;4920332;28;45404;-62
2022/07/17 03:16:17;;;;;;;;;4.00;4.00;;;;;25.23;31.61;101923.03;4920493;28;45383;-65
2022/07/17 03:18:42;;;;;;;;;4.00;4.00;;;;;25.22;31.65;101912.53;4902792;28;45457;-65
2022/07/17 03:21:07;;;;;;;;;2.50;2.50;;;;;25.21;32.17;101913.47;4920104;28;45316;-64
2022/07/17 03:23:33;;;;;;;;;3.00;3.00;;;;;25.18;32.16;101909.22;4919958;28;45317;-55
2022/07/17 03:25:58;;;;;;;;;3.25;3.25;;;;;25.17;31.71;101923.41;4920282;28;45703;-61
2022/07/17 03:28:23;;;;;;;;;4.00;4.00;;;;;25.16;32.32;101917.25;4920245;28;46929;-57
2022/07/17 03:30:49;;;;;;;;;3.50;3.50;;;;;25.16;31.79;101919.06;4919698;28;45330;-59
2022/07/17 03:33:14;;;;;;;;;4.00;3.00;;;;;25.14;31.65;101910.31;4919840;28;49580;-56
2022/07/17 03:35:39;;;;;;;;;3.75;3.00;;;;;25.14;31.70;101927.06;4919996;28;45659;-54
2022/07/17 03:38:04;;;;;;;;;3.00;3.00;;;;;25.12;32.08;101925.47;4919504;28;52167;-56
2022/07/17 03:40:30;;;;;;;;;3.00;3.00;;;;;25.11;31.85;101927.28;4919472;28;48314;-63
2022/07/17 03:42:55;;;;;;;;;2.50;2.50;;;;;25.08;32.01;101927.44;4920136;28;45248;-49
2022/07/17 03:45:20;;;;;;;;;2.67;2.67;;;;;25.07;32.15;101927.56;4919524;28;54148;-67
2022/07/17 03:47:46;;;;;;;;;4.00;3.00;;;;;25.06;32.41;101925.84;4919137;28;45268;-60
2022/07/17 03:50:11;;;;;;;;;5.33;4.00;;;;;25.07;31.71;101927.56;4919155;28;63342;-55
2022/07/17 03:52:36;;;;;;;;;3.00;3.00;;;;;25.08;31.74;101931.91;4902947;28;45435;-55
2022/07/17 03:55:02;;;;;;;;;3.00;3.00;;;;;25.07;32.46;101932.84;4920065;28;45579;-58
2022/07/17 03:57:27;;;;;;;;;3.00;3.00;;;;;25.06;32.19;101931.16;4919244;28;45574;-46
2022/07/17 03:59:53;;;;;;;;;4.50;3.25;;;;;25.04;32.41;101936.50;4919711;28;45287;-53
2022/07/17 04:02:18;;;;;;;;;4.50;3.50;;;;;25.04;31.96;101940.97;4920785;28;45312;-60
2022/07/17 04:04:44;;;;;;;;;3.00;2.25;;;;;25.02;31.95;101935.78;4922753;28;45269;-54
2022/07/17 04:07:26;;;;;;;;;4.00;3.00;;;;;25.01;31.98;101934.06;4940174;28;47376;-63
2022/07/17 04:09:52;;;;;;;;;3.75;2.75;;;;;24.99;32.12;101926.16;4932785;28;45839;-64
2022/07/17 04:12:18;;;;;;;;;4.25;4.00;;;;;24.99;32.09;101920.88;4920160;28;45416;-65
2022/07/17 04:14:43;;;;;;;;;4.25;3.00;;;;;24.98;32.43;101923.63;4919896;28;45620;-61
2022/07/17 04:17:08;;;;;;;;;3.00;3.00;;;;;24.96;32.53;101926.38;4919703;28;63193;-63
2022/07/17 04:19:33;;;;;;;;;3.00;3.00;;;;;24.95;32.56;101924.66;4919699;28;45899;-62
2022/07/17 04:21:59;;;;;;;;;5.67;3.33;;;;;24.93;32.82;101937.16;4919001;28;60338;-65
2022/07/17 04:24:24;;;;;;;;;3.25;3.25;;;;;24.92;32.18;101939.88;4919277;28;45587;-64
2022/07/17 04:26:49;;;;;;;;;4.50;4.50;;;;;24.90;32.22;101947.91;4919005;28;46555;-57
2022/07/17 04:29:15;;;;;;;;;4.00;4.00;;;;;24.87;32.28;101958.69;4918977;28;45326;-64
2022/07/17 04:31:40;;;;;;;;;4.00;4.00;;;;;24.82;32.92;101966.91;4918871;28;45382;-63
2022/07/17 04:34:05;;;;;;;;;3.50;3.50;;;;;24.81;32.51;101967.00;4919205;28;45397;-62
2022/07/17 04:36:31;;;;;;;;;4.50;2.75;;;;;24.81;32.46;101967.00;4923966;28;45926;-60
2022/07/17 04:38:56;;;;;;;;;3.25;3.25;;;;;24.80;32.40;101970.59;4932997;28;45327;-52
2022/07/17 04:41:22;;;;;;;;;3.25;2.25;;;;;24.81;32.58;101969.66;4932943;28;45396;-57
2022/07/17 04:43:47;;;;;;;;;3.75;3.75;;;;;24.81;32.94;101969.66;4942536;28;44834;-65
2022/07/17 04:46:12;;;;;;;;;5.50;4.25;;;;;24.82;33.12;101974.03;4941967;28;46500;-60
2022/07/17 04:48:38;;;;;;;;;3.25;3.25;;;;;24.83;32.86;101981.03;4944116;28;44797;-45
2022/07/17 04:51:03;;;;;;;;;3.25;3.25;;;;;24.82;33.00;101982.81;4946247;28;44740;-50
2022/07/17 04:53:30;;;;;;;;;7.00;4.25;;;;;24.79;32.59;101987.44;4918272;28;45380;-65
2022/07/17 04:55:56;;;;;;;;;4.00;4.00;;;;;24.76;33.18;101984.94;4919253;28;47197;-66
2022/07/17 04:58:21;;;;;;;;;3.00;3.00;;;;;24.75;33.08;101985.91;4919171;28;45248;-66
2022/07/17 05:00:47;;;;;;;;;3.00;3.00;;;;;24.77;33.17;101989.31;4922920;28;45358;-61
2022/07/17 05:03:13;;;;;;;;;5.00;3.75;;;;;24.79;33.12;101987.44;4939785;28;45240;-59
2022/07/17 05:05:40;;;;;;;;;5.00;5.00;;;;;24.77;33.20;101990.19;4938857;28;45317;-56
2022/07/17 05:08:05;;;;;;;;;5.75;5.75;;;;;24.78;33.27;101986.59;4936393;28;45843;-62
2022/07/17 05:10:30;;;;;;;;;7.25;7.25;;;;;24.78;33.19;101986.59;4926943;28;45347;-58
2022/07/17 05:12:56;;;;;;;;;8.25;7.25;;;;;24.77;33.11;101984.00;4928133;28;45441;-58
2022/07/17 05:15:21;;;;;;;;;11.25;8.00;;;;;24.75;32.67;101986.75;4923013;28;58278;-58
2022/07/17 05:17:46;;;;;;;;;9.00;8.25;;;;;24.75;32.90;101992.06;4919776;28;45329;-55
2022/07/17 05:20:12;;;;;;;;;11.00;10.00;;;;;24.74;33.27;101990.34;4923851;28;45544;-64
2022/07/17 05:22:37;;;;;;;;;12.50;11.00;;;;;24.72;32.79;101992.22;4919365;28;45291;-63
2022/07/17 05:25:03;;;;;;;;;8.75;8.75;;;;;24.70;32.95;101989.66;4918184;28;46509;-62
2022/07/17 05:27:28;;;;;;;;;11.25;9.25;;;;;24.73;33.34;101993.09;4918151;28;45342;-60
2022/07/17 05:29:54;;;;;;;;;6.75;6.75;;;;;24.73;32.96;101998.41;4918778;28;45365;-67
2022/07/17 05:32:20;;;;;;;;;7.00;5.75;;;;;24.68;33.54;101999.50;4918808;28;45244;-62
2022/07/17 05:34:45;;;;;;;;;6.75;6.00;;;;;24.68;32.96;101994.19;4918031;28;45997;-65
2022/07/17 05:37:10;;;;;;;;;5.25;5.25;;;;;24.67;33.17;101992.44;4919532;28;45440;-64
2022/07/17 05:39:35;;;;;;;;;5.00;4.00;;;;;24.66;33.55;101993.38;4920296;28;45252;-67
2022/07/17 05:42:01;;;;;;;;;5.75;5.25;;;;;24.65;33.44;102002.28;4919578;28;45578;-66
2022/07/17 05:44:26;;;;;;;;;5.00;5.00;;;;;24.69;33.44;102003.00;4918322;28;46150;-54
2022/07/17 05:46:51;;;;;;;;;6.00;6.00;;;;;24.70;33.39;101999.41;4918290;28;45339;-60
2022/07/17 05:49:17;;;;;;;;;4.50;4.00;;;;;24.69;33.54;101998.56;4918192;28;45359;-52
2022/07/17 05:51:42;;;;;;;;;6.50;4.25;;;;;24.70;33.38;102002.91;4918127;28;45546;-62
2022/07/17 05:54:07;;;;;;;;;3.00;3.00;;;;;24.72;33.04;102008.13;4917908;28;47058;-55
2022/07/17 05:56:33;;;;;;;;;8.67;5.33;;;;;24.71;33.88;102006.41;4917250;28;57199;-51
2022/07/17 05:58:58;;;;;;;;;5.00;4.00;;;;;24.70;33.06;102002.91;4918391;28;45436;-54
2022/07/17 06:01:24;;;;;;;;;7.00;4.00;;;;;24.71;33.49;102001.09;4919376;28;45210;-56
2022/07/17 06:03:49;;;;;;;;;3.00;3.00;;;;;24.70;33.14;101994.97;4937981;28;45228;-63
2022/07/17 06:06:14;;;;;;;;;4.25;4.00;;;;;24.72;33.19;102002.81;4931909;28;45275;-59
2022/07/17 06:08:39;;;;;;;;;4.00;3.00;;;;;24.75;32.90;102015.09;4917459;28;45368;-56
2022/07/17 06:11:06;;;;;;;;;4.75;3.00;;;;;24.74;33.24;102006.25;4916915;28;45575;-60
2022/07/17 06:13:31;;;;;;;;;5.75;4.25;;;;;24.74;33.56;102005.41;4916846;28;46457;-65
2022/07/17 06:15:58;;;;;;;;;4.50;4.00;;;;;24.73;32.98;102004.53;4918094;28;45785;-61
2022/07/17 06:18:25;;;;;;;;;3.00;3.00;;;;;24.72;32.93;102001.97;4918300;28;45422;-64
2022/07/17 06:20:50;;;;;;;;;3.00;3.00;;;;;24.73;33.05;102003.69;4919584;28;45620;-64
2022/07/17 06:23:16;;;;;;;;;4.50;3.50;;;;;24.72;33.57;102002.81;4920978;28;46918;-65
2022/07/17 06:25:41;;;;;;;;;5.75;4.00;;;;;24.74;33.58;102008.06;4929566;28;51542;-62
2022/07/17 06:28:06;;;;;;;;;6.00;5.00;;;;;24.72;33.25;102008.13;4939521;28;44688;-64
2022/07/17 06:30:32;;;;;;;;;4.00;4.00;;;;;24.77;33.72;102005.22;4942335;28;45317;-60
2022/07/17 06:32:57;;;;;;;;;3.50;3.50;;;;;24.77;33.58;102006.09;4939291;28;45407;-62
2022/07/17 06:35:23;;;;;;;;;2.50;2.00;;;;;24.80;33.24;102005.06;4935010;28;45296;-64
2022/07/17 06:37:48;;;;;;;;;5.00;5.00;;;;;24.80;33.74;102005.06;4921873;28;45352;-63
2022/07/17 06:40:13;;;;;;;;;3.75;3.75;;;;;24.84;33.07;102006.63;4921108;28;45492;-61
2022/07/17 06:42:39;;;;;;;;;4.00;4.00;;;;;24.87;33.13;102003.78;4920632;28;45248;-59
2022/07/17 06:45:05;;;;;;;;;3.00;3.00;;;;;24.88;32.83;101999.34;4921028;28;45174;-62
2022/07/17 06:47:30;;;;;;;;;3.75;3.50;;;;;24.88;33.00;102000.19;4920839;28;45366;-65
2022/07/17 06:49:55;;;;;;;;;3.25;3.00;;;;;24.90;32.90;102003.59;4921272;28;45326;-63
2022/07/17 06:52:21;;;;;;;;;4.75;4.75;;;;;24.90;33.08;101993.00;4920432;28;45405;-60
2022/07/17 06:54:46;;;;;;;;;4.25;3.50;;;;;24.91;33.36;101996.53;4919264;28;53703;-56
2022/07/17 06:57:11;;;;;;;;;3.75;3.75;;;;;24.93;33.42;101995.50;4920362;28;45843;-61
2022/07/17 06:59:37;;;;;;;;;4.75;4.00;;;;;24.94;32.84;101999.84;4920196;28;45490;-63
2022/07/17 07:02:02;;;;;;;;;5.25;4.00;;;;;24.96;32.74;101992.66;4920044;28;47125;-64
2022/07/17 07:04:28;;;;;;;;;3.25;3.25;;;;;24.96;32.79;102000.63;4920198;28;45500;-59
2022/07/17 07:06:53;;;;;;;;;4.75;4.00;;;;;24.97;33.17;101997.00;4920021;28;45470;-59
2022/07/17 07:09:18;;;;;;;;;3.00;3.00;;;;;24.98;33.20;101997.88;4920641;28;45319;-65
2022/07/17 07:11:44;;;;;;;;;3.00;3.00;;;;;25.00;32.70;101998.66;4920040;28;46280;-63
2022/07/17 07:14:09;;;;;;;;;4.75;4.75;;;;;25.02;32.57;101999.44;4921366;28;45272;-67
2022/07/17 07:16:35;;;;;;;;;5.50;4.25;;;;;25.05;32.66;102004.53;4931693;28;45320;-67
2022/07/17 07:19:00;;;;;;;;;2.75;2.75;;;;;25.07;32.71;102005.31;4936672;28;45396;-61
2022/07/17 07:21:26;;;;;;;;;4.00;3.00;;;;;25.08;32.53;102003.53;4920758;28;45565;-64
2022/07/17 07:23:52;;;;;;;;;3.25;3.25;;;;;25.11;32.16;102003.34;4919859;28;45339;-66
2022/07/17 07:26:17;;;;;;;;;5.25;4.00;;;;;25.11;32.01;102016.59;4919755;28;45393;-56
2022/07/17 07:28:43;;;;;;;;;4.00;4.00;;;;;25.11;32.38;102000.69;4919422;28;45475;-63
2022/07/17 07:31:09;;;;;;;;;5.75;3.00;;;;;25.08;32.27;102006.19;4920973;28;45249;-59
2022/07/17 07:33:34;;;;;;;;;3.00;3.00;;;;;25.08;32.91;101995.56;4921083;28;45794;-57
2022/07/17 07:36:00;;;;;;;;;3.00;3.00;;;;;25.09;32.14;101998.13;4919500;28;45372;-59
2022/07/17 07:38:25;;;;;;;;;3.75;3.00;;;;;25.09;32.08;102003.44;4919790;28;45351;-55
2022/07/17 07:40:51;;;;;;;;;3.50;3.25;;;;;25.13;32.56;102007.63;4917846;28;45271;-62
2022/07/17 07:43:16;;;;;;;;;3.50;3.50;;;;;25.12;32.53;102000.63;4919118;28;45318;-56
2022/07/17 07:45:42;;;;;;;;;4.00;4.00;;;;;25.14;32.11;101997.88;4917288;28;45320;-60
2022/07/17 07:48:07;;;;;;;;;2.00;2.00;;;;;25.14;32.64;101988.09;4919158;28;45653;-50
2022/07/17 07:50:33;;;;;;;;;2.75;2.75;;;;;25.18;32.12;101988.81;4918574;28;47143;-55
2022/07/17 07:52:58;;;;;;;;;4.50;4.00;;;;;25.21;32.24;101991.25;4918776;28;45529;-59
2022/07/17 07:55:25;;;;;;;;;3.75;3.00;;;;;25.23;32.27;101986.72;4920060;28;45352;-65
2022/07/17 07:58:01;;;;;;;;;3.00;3.00;;;;;25.28;32.16;101989.97;4922591;28;45311;-58
2022/07/17 08:00:27;;;;;;;;;4.50;4.25;;;;;25.30;32.27;101985.41;4933795;28;45355;-45
2022/07/17 08:02:52;;;;;;;;;3.00;3.00;;;;;25.35;31.95;101993.13;4916178;28;50298;-67
2022/07/17 08:05:17;;;;;;;;;4.00;2.50;;;;;25.38;32.44;101997.41;4920141;28;45261;-59
2022/07/17 08:07:43;;;;;;;;;5.00;4.00;;;;;25.41;31.79;101994.63;4920211;28;45259;-64
2022/07/17 08:10:08;;;;;;;;;6.00;3.25;;;;;25.41;31.70;102000.75;4925959;28;46095;-49
2022/07/17 08:12:34;;;;;;;;;2.50;2.50;;;;;25.42;32.11;101998.94;4941652;28;45424;-55
2022/07/17 08:14:59;;;;;;;;;5.25;3.75;;;;;25.42;31.93;101993.63;4943025;28;45228;-54
2022/07/17 08:17:24;;;;;;;;;5.00;4.00;;;;;25.42;31.93;101991.00;4937558;28;45366;-64
2022/07/17 08:19:50;;;;;;;;;3.25;3.25;;;;;25.42;31.73;101991.00;4917721;28;47431;-61
2022/07/17 08:22:15;;;;;;;;;3.00;3.00;;;;;25.41;32.08;101992.81;4919438;28;45311;-59
2022/07/17 08:24:40;;;;;;;;;4.00;4.00;;;;;25.43;31.96;101992.69;4919146;28;45341;-65
2022/07/17 08:27:05;;;;;;;;;3.00;3.00;;;;;25.44;32.08;102000.59;4929852;28;45566;-62
2022/07/17 08:29:31;;;;;;;;;4.75;3.00;;;;;25.46;31.67;101992.53;4922128;28;46700;-64
2022/07/17 08:31:56;;;;;;;;;3.00;3.00;;;;;25.49;31.47;101999.44;4924756;28;45511;-48
2022/07/17 08:34:22;;;;;;;;;3.75;3.25;;;;;25.50;32.11;101996.72;4931179;28;45470;-64
2022/07/17 11:26:18;;;;;;;;;5.00;4.00;;;;;26.35;27.89;101985.47;5060501;23;45414;-48
2022/07/17 11:28:44;;;;;;;;;4.00;4.00;;;;;26.34;28.50;101978.47;4901218;28;45345;-47
2022/07/17 11:31:24;;;;;;;;;4.00;4.00;;;;;26.36;28.13;101979.22;4900949;28;46887;-51
2022/07/17 11:33:50;;;;;;;;;3.25;3.25;;;;;26.36;28.17;101981.88;4900519;29;45591;-53
2022/07/17 11:36:28;;;;;;;;;3.00;3.00;;;;;26.36;28.15;101963.28;4901409;29;45405;-58
2022/07/17 11:38:58;;;;;;;;;4.75;4.00;;;;;26.35;28.22;101965.06;4901019;29;45369;-55
2022/07/17 11:41:32;;;;;;;;;4.75;3.25;;;;;26.36;28.55;101960.63;4900709;29;45391;-58
2022/07/17 11:43:57;;;;;;;;;4.00;4.00;;;;;26.36;28.42;101958.78;4900823;29;45368;-56
2022/07/17 11:46:23;;;;;;;;;6.00;3.25;;;;;26.38;28.08;101950.75;4900865;29;45436;-58
2022/07/17 11:48:48;;;;;;;;;4.50;4.00;;;;;26.34;28.32;101960.72;4900713;29;45620;-55
2022/07/17 11:51:14;;;;;;;;;5.00;5.00;;;;;26.37;28.24;101964.97;4900873;29;46200;-60
2022/07/17 11:53:40;;;;;;;;;6.75;5.25;;;;;26.39;28.24;101971.06;4900210;29;45264;-58
2022/07/17 11:56:06;;;;;;;;;5.00;5.00;;;;;26.39;28.13;101960.44;4900567;28;45270;-55
2022/07/17 11:59:02;;;;;;;;;5.00;5.00;;;;;26.39;28.55;101941.81;4900528;28;45660;-58
2022/07/17 12:01:37;;;;;;;;;4.00;4.00;;;;;26.40;28.55;101943.53;4888122;29;46017;-57
2022/07/17 12:04:02;;;;;;;;;7.00;5.00;;;;;26.41;28.54;101941.72;4900443;29;45204;-56
2022/07/17 12:06:27;;;;;;;;;6.75;4.25;;;;;26.41;28.50;101931.94;4900272;28;45411;-55
2022/07/17 12:08:54;;;;;;;;;5.75;4.25;;;;;26.42;28.17;101933.63;4900656;29;45596;-59
2022/07/17 12:11:20;;;;;;;;;3.00;3.00;;;;;26.43;28.42;101934.50;4900211;29;46201;-57
2022/07/17 12:13:47;;;;;;;;;4.00;4.00;;;;;26.43;28.25;101929.19;4883260;29;45494;-59
2022/07/17 12:16:21;;;;;;;;;5.50;5.00;;;;;26.45;28.47;101922.81;4900417;29;45351;-58
2022/07/17 12:19:08;;;;;;;;;4.25;4.25;;;;;26.46;28.30;101915.72;4900576;29;45349;-55
2022/07/17 12:21:47;;;;;;;;;4.75;4.00;;;;;26.46;28.40;101916.56;4899855;29;46227;-57
2022/07/17 12:24:22;;;;;;;;;5.25;3.00;;;;;26.47;28.09;101902.31;4899900;29;45665;-60
2022/07/17 12:26:48;;;;;;;;;3.25;3.25;;;;;26.48;28.08;101906.69;4899981;29;45427;-55
2022/07/17 12:29:13;;;;;;;;;5.00;4.00;;;;;26.50;28.21;101898.59;4883556;29;45347;-58
2022/07/17 12:31:39;;;;;;;;;4.50;4.00;;;;;26.51;28.46;101901.13;4899577;29;46045;-53
2022/07/17 12:34:04;;;;;;;;;3.75;3.50;;;;;26.50;28.28;101891.50;4899925;29;45337;-54
2022/07/17 12:36:29;;;;;;;;;4.00;4.00;;;;;26.51;28.39;101889.66;4899837;29;45491;-53
2022/07/17 12:38:55;;;;;;;;;3.00;3.00;;;;;26.51;28.25;101893.16;4900304;28;45344;-58
2022/07/17 12:41:20;;;;;;;;;4.25;2.75;;;;;26.53;28.16;101893.09;4900064;28;46315;-51
2022/07/17 12:43:46;;;;;;;;;5.00;4.00;;;;;26.53;27.84;101888.59;4899848;29;45319;-52
2022/07/17 12:46:12;;;;;;;;;4.00;4.00;;;;;26.54;28.15;101892.97;4899968;29;45379;-56
2022/07/17 12:48:39;;;;;;;;;6.00;5.00;;;;;26.54;28.00;101900.94;4899781;29;45540;-59
2022/07/17 12:51:06;;;;;;;;;5.25;4.25;;;;;26.55;28.14;101892.03;4899430;29;46214;-58
2022/07/17 12:53:31;;;;;;;;;4.00;4.00;;;;;26.55;28.18;101891.19;4899474;29;45213;-54
2022/07/17 12:55:57;;;;;;;;;5.75;4.00;;;;;26.55;28.20;101880.56;4899798;29;45356;-57
2022/07/17 12:58:22;;;;;;;;;4.00;4.00;;;;;26.57;28.32;101877.78;4899840;29;45552;-56
2022/07/17 13:00:48;;;;;;;;;3.00;3.00;;;;;26.58;28.33;101875.00;4899560;29;46054;-57
2022/07/17 13:03:13;;;;;;;;;2.50;2.50;;;;;26.58;28.23;101883.00;4899548;29;45392;-55
2022/07/17 13:05:38;;;;;;;;;3.00;3.00;;;;;26.59;28.33;101881.19;4899331;29;45284;-58
2022/07/17 13:08:04;;;;;;;;;3.00;3.00;;;;;26.59;28.68;101875.88;4899750;29;45265;-55
2022/07/17 13:10:29;;;;;;;;;3.00;3.00;;;;;26.61;28.46;101873.97;4899079;29;46091;-56
2022/07/17 13:12:54;;;;;;;;;3.00;3.00;;;;;26.61;28.72;101868.66;4899630;28;45498;-54
2022/07/17 13:15:20;;;;;;;;;4.25;3.75;;;;;26.62;28.60;101859.75;4899710;29;45543;-55
2022/07/17 13:17:45;;;;;;;;;1.00;1.00;;;;;26.63;28.80;101864.06;4899326;29;45485;-49
2022/07/17 13:20:11;;;;;;;;;4.00;4.00;;;;;26.63;28.60;101866.72;4898084;29;46307;-54
2022/07/17 13:22:36;;;;;;;;;5.00;3.00;;;;;26.64;28.47;101858.69;4899117;28;45690;-56
2022/07/17 13:25:02;;;;;;;;;4.00;4.00;;;;;26.65;28.46;101854.19;4899258;29;45496;-50
2022/07/17 13:27:27;;;;;;;;;4.00;4.00;;;;;26.65;28.58;101860.38;4899391;29;45502;-53
2022/07/17 13:29:53;;;;;;;;;3.75;3.25;;;;;26.66;28.51;101861.22;4899201;28;45343;-51
2022/07/17 13:32:18;;;;;;;;;4.00;3.00;;;;;26.67;28.46;101857.63;4899337;29;48369;-52
2022/07/17 13:34:43;;;;;;;;;3.00;3.00;;;;;26.67;28.65;101846.97;4899128;29;45452;-52
2022/07/17 13:37:09;;;;;;;;;5.25;3.75;;;;;26.69;28.45;101853.06;4899062;29;48550;-47
2022/07/17 13:39:35;;;;;;;;;3.00;3.00;;;;;26.69;28.10;101850.41;4900955;29;45925;-50
2022/07/17 13:42:02;;;;;;;;;3.00;3.00;;;;;26.70;28.44;101847.63;4902659;29;45583;-51
2022/07/17 13:44:27;;;;;;;;;4.00;4.00;;;;;26.70;28.02;101842.31;4902434;29;45769;-52
2022/07/17 13:46:52;;;;;;;;;5.00;2.50;;;;;26.71;28.70;101832.53;4902960;29;45521;-45
2022/07/17 13:49:17;;;;;;;;;4.00;4.00;;;;;26.71;28.33;101835.19;4902624;29;45274;-54
2022/07/17 13:51:43;;;;;;;;;3.00;3.00;;;;;26.72;28.49;101833.38;4902176;28;45372;-54
2022/07/17 13:54:08;;;;;;;;;4.00;3.00;;;;;26.72;28.34;101828.06;4902399;29;45638;-48
2022/07/17 13:56:34;;;;;;;;;4.50;3.50;;;;;26.73;28.32;101825.31;4902257;29;45256;-50
2022/07/17 13:59:00;;;;;;;;;4.00;4.00;;;;;26.74;28.15;101827.00;4902342;29;45418;-55
2022/07/17 14:01:27;;;;;;;;;4.25;3.00;;;;;26.74;28.07;101819.00;4902214;29;45310;-53
2022/07/17 14:03:52;;;;;;;;;3.75;3.50;;;;;26.75;28.14;101822.53;4902644;29;45505;-51
2022/07/17 14:06:18;;;;;;;;;5.00;4.00;;;;;26.75;27.74;101823.38;4902552;29;45397;-47
2022/07/17 14:08:43;;;;;;;;;4.75;3.00;;;;;26.75;27.75;101820.72;4901939;29;46141;-51